createdAt,value
2023-01-06T00:01:35.139Z,2.63
2023-01-06T00:04:03.663Z,3.70
2023-01-06T00:06:31.855Z,3.70
2023-01-06T00:09:03.514Z,2.50
2023-01-06T00:11:31.678Z,3.00
2023-01-06T00:14:00.100Z,3.83
2023-01-06T00:16:27.579Z,3.00
2023-01-06T00:18:57.455Z,3.50
2023-01-06T00:21:25.569Z,2.40
2023-01-06T00:23:53.307Z,2.77
2023-01-06T00:26:20.799Z,2.77
2023-01-06T00:28:48.645Z,3.20
2023-01-06T00:31:17.711Z,2.37
2023-01-06T00:33:45.272Z,2.37
2023-01-06T00:36:14.711Z,2.43
2023-01-06T00:38:42.743Z,3.17
2023-01-06T00:41:45.153Z,5.07
2023-01-06T00:44:12.543Z,3.07
2023-01-06T00:46:40.910Z,3.00
2023-01-06T00:49:08.371Z,3.67
2023-01-06T00:51:39.427Z,7.27
2023-01-06T00:54:10.070Z,3.50
2023-01-06T00:56:43.314Z,3.53
2023-01-06T00:59:14.693Z,2.40
2023-01-06T01:01:43.566Z,3.10
2023-01-06T01:04:11.970Z,3.40
2023-01-06T01:06:42.215Z,4.33
2023-01-06T01:09:14.026Z,3.07
2023-01-06T01:12:00.106Z,5.77
2023-01-06T01:14:27.873Z,4.23
2023-01-06T01:16:55.286Z,3.13
2023-01-06T01:19:23.673Z,3.43
2023-01-06T01:21:51.166Z,4.27
2023-01-06T01:24:19.397Z,2.90
2023-01-06T01:26:47.581Z,2.70
2023-01-06T01:29:17.401Z,3.47
2023-01-06T01:31:45.727Z,4.23
2023-01-06T01:34:15.282Z,5.03
2023-01-06T01:36:45.559Z,3.90
2023-01-06T01:39:15.659Z,6.23
2023-01-06T01:41:43.477Z,5.97
2023-01-06T01:44:52.388Z,5.50
2023-01-06T01:47:31.620Z,3.20
2023-01-06T01:50:27.695Z,5.57
2023-01-06T01:53:04.132Z,4.40
2023-01-06T01:55:33.101Z,5.23
2023-01-06T01:58:16.648Z,3.57
2023-01-06T02:00:45.093Z,3.80
2023-01-06T02:03:14.596Z,3.80
2023-01-06T02:05:47.111Z,3.57
2023-01-06T02:08:44.807Z,3.83
2023-01-06T02:11:12.861Z,2.80
2023-01-06T02:13:44.717Z,3.20
2023-01-06T02:16:47.773Z,3.67
2023-01-06T02:19:49.269Z,3.53
2023-01-06T02:23:10.970Z,3.60
2023-01-06T02:26:05.616Z,2.30
2023-01-06T02:29:15.578Z,3.30
2023-01-06T02:32:07.056Z,3.03
2023-01-06T02:34:55.247Z,3.17
2023-01-06T02:37:40.224Z,5.70
2023-01-06T02:41:11.755Z,4.57
2023-01-06T02:44:05.146Z,3.50
2023-01-06T02:47:21.631Z,6.23
2023-01-06T02:50:02.112Z,4.57
2023-01-06T02:52:44.826Z,3.17
2023-01-06T02:55:49.317Z,3.90
2023-01-06T02:58:41.540Z,3.40
2023-01-06T03:01:18.350Z,3.00
2023-01-06T03:03:48.785Z,4.80
2023-01-06T03:06:24.505Z,3.50
2023-01-06T03:08:54.832Z,1.67
2023-01-06T03:11:23.939Z,3.23
2023-01-06T03:14:09.009Z,2.77
2023-01-06T03:16:36.486Z,3.67
2023-01-06T03:19:04.117Z,4.00
2023-01-06T03:21:37.728Z,2.50
2023-01-06T03:24:10.964Z,2.43
2023-01-06T03:26:39.463Z,2.17
2023-01-06T03:29:14.021Z,2.60
2023-01-06T03:31:56.117Z,2.70
2023-01-06T03:35:03.684Z,3.47
2023-01-06T03:38:01.173Z,3.17
2023-01-06T03:40:41.702Z,3.83
2023-01-06T03:43:18.760Z,4.80
2023-01-06T03:46:14.354Z,5.70
2023-01-06T03:48:57.126Z,3.77
2023-01-06T03:51:36.391Z,3.07
2023-01-06T03:54:47.768Z,4.50
2023-01-06T03:57:39.271Z,3.77
2023-01-06T04:00:16.468Z,3.40
2023-01-06T04:02:45.768Z,2.50
2023-01-06T04:05:18.304Z,2.20
2023-01-06T04:07:46.737Z,2.33
2023-01-06T04:10:16.532Z,2.87
2023-01-06T04:12:44.096Z,3.60
2023-01-06T04:15:22.404Z,5.53
2023-01-06T04:17:50.926Z,3.00
2023-01-06T04:20:29.237Z,4.30
2023-01-06T04:22:58.605Z,2.17
2023-01-06T04:25:26.500Z,2.87
2023-01-06T04:27:54.577Z,2.43
2023-01-06T04:30:22.088Z,3.90
2023-01-06T04:32:49.537Z,2.93
2023-01-06T04:35:17.142Z,3.13
2023-01-06T04:37:45.084Z,3.43
2023-01-06T04:40:12.720Z,2.13
2023-01-06T04:42:58.669Z,3.77
2023-01-06T04:45:26.144Z,3.03
2023-01-06T04:47:53.639Z,2.93
2023-01-06T04:50:21.113Z,2.20
2023-01-06T04:52:48.578Z,2.43
2023-01-06T04:55:16.093Z,5.20
2023-01-06T04:57:43.542Z,3.73
2023-01-06T05:00:12.017Z,3.20
2023-01-06T05:02:39.519Z,3.50
2023-01-06T05:05:07.901Z,3.63
2023-01-06T05:07:35.431Z,3.73
2023-01-06T05:10:03.845Z,2.50
2023-01-06T05:12:32.686Z,3.33
2023-01-06T05:15:00.188Z,2.50
2023-01-06T05:17:28.449Z,3.43
2023-01-06T05:19:56.027Z,2.60
2023-01-06T05:22:23.517Z,2.27
2023-01-06T05:24:50.961Z,3.67
2023-01-06T05:27:18.501Z,3.40
2023-01-06T05:29:45.925Z,2.57
2023-01-06T05:32:13.351Z,2.57
2023-01-06T05:34:40.813Z,3.03
2023-01-06T05:37:08.202Z,2.73
2023-01-06T05:39:35.626Z,2.47
2023-01-06T05:42:03.085Z,3.97
2023-01-06T05:44:30.541Z,2.70
2023-01-06T05:46:57.910Z,3.87
2023-01-06T05:49:25.355Z,4.30
2023-01-06T05:51:52.777Z,3.37
2023-01-06T05:54:20.217Z,3.07
2023-01-06T05:56:47.683Z,3.83
2023-01-06T05:59:15.144Z,3.50
2023-01-06T06:01:42.618Z,4.17
2023-01-06T06:04:13.421Z,3.10
2023-01-06T06:06:40.917Z,4.50
2023-01-06T06:09:08.855Z,3.27
2023-01-06T06:11:36.370Z,4.93
2023-01-06T06:14:03.863Z,3.53
2023-01-06T06:16:31.391Z,5.17
2023-01-06T06:18:59.697Z,5.10
2023-01-06T06:21:30.745Z,4.23
2023-01-06T06:23:59.531Z,3.83
2023-01-06T06:26:27.814Z,5.03
2023-01-06T06:28:55.652Z,5.07
2023-01-06T06:31:26.456Z,5.63
2023-01-06T06:33:57.015Z,7.50
2023-01-06T06:36:25.370Z,6.47
2023-01-06T06:38:54.539Z,4.77
2023-01-06T06:41:23.819Z,6.90
2023-01-06T06:43:52.100Z,7.47
2023-01-06T06:46:20.649Z,6.07
2023-01-06T06:48:50.259Z,5.53
2023-01-06T06:51:21.351Z,6.03
2023-01-06T06:53:49.437Z,5.87
2023-01-06T06:56:19.313Z,5.30
2023-01-06T06:58:46.883Z,4.33
2023-01-06T07:01:21.034Z,3.43
2023-01-06T07:03:49.487Z,4.33
2023-01-06T07:06:31.608Z,7.50
2023-01-06T07:08:59.087Z,5.83
2023-01-06T07:11:26.535Z,5.80
2023-01-06T07:13:54.052Z,4.77
2023-01-06T07:16:23.418Z,5.30
2023-01-06T07:18:50.882Z,5.53
2023-01-06T07:21:18.427Z,3.97
2023-01-06T07:23:45.864Z,4.67
2023-01-06T07:26:15.695Z,2.97
2023-01-06T07:28:43.299Z,2.97
2023-01-06T07:31:10.735Z,4.23
2023-01-06T07:33:38.251Z,5.20
2023-01-06T07:36:06.179Z,5.30
2023-01-06T07:38:33.733Z,5.80
2023-01-06T07:41:01.600Z,6.87
2023-01-06T07:43:29.616Z,5.30
2023-01-06T07:45:57.216Z,5.33
2023-01-06T07:48:24.660Z,5.63
2023-01-06T07:50:52.116Z,5.53
2023-01-06T07:53:19.614Z,4.43
2023-01-06T07:55:56.053Z,4.23
2023-01-06T07:58:24.316Z,4.17
2023-01-06T08:00:52.165Z,4.53
2023-01-06T08:03:19.773Z,3.77
2023-01-06T08:05:47.229Z,5.87
2023-01-06T08:08:14.716Z,4.93
2023-01-06T08:10:43.476Z,4.13
2023-01-06T08:13:11.472Z,5.07
2023-01-06T08:15:39.327Z,4.83
2023-01-06T08:18:07.569Z,3.73
2023-01-06T08:20:35.202Z,4.10
2023-01-06T08:23:03.212Z,3.20
2023-01-06T08:25:30.603Z,6.23
2023-01-06T08:28:00.266Z,4.17
2023-01-06T08:30:28.136Z,5.13
2023-01-06T08:33:00.243Z,3.93
2023-01-06T08:35:28.331Z,3.83
2023-01-06T08:37:55.823Z,4.73
2023-01-06T08:40:23.556Z,4.83
2023-01-06T08:42:51.063Z,4.20
2023-01-06T08:45:18.736Z,4.03
2023-01-06T08:47:46.156Z,4.97
2023-01-06T08:50:13.643Z,4.37
2023-01-06T08:52:41.096Z,4.27
2023-01-06T08:55:08.603Z,4.13
2023-01-06T08:57:36.078Z,4.67
2023-01-06T09:00:06.712Z,4.57
2023-01-06T09:02:34.132Z,5.20
2023-01-06T09:05:01.676Z,5.43
2023-01-06T09:07:29.256Z,5.40
2023-01-06T09:09:56.778Z,4.03
2023-01-06T09:12:24.229Z,3.80
2023-01-06T09:14:51.763Z,5.23
2023-01-06T09:17:19.204Z,6.43
2023-01-06T09:19:46.654Z,4.50
2023-01-06T09:22:14.244Z,4.83
2023-01-06T09:24:41.625Z,5.50
2023-01-06T09:27:09.134Z,4.53
2023-01-06T09:29:36.597Z,4.37
2023-01-06T09:32:04.301Z,4.27
2023-01-06T09:34:31.720Z,6.33
2023-01-06T09:36:59.254Z,6.00
2023-01-06T09:39:27.391Z,7.70
2023-01-06T09:42:03.301Z,4.53
2023-01-06T09:44:54.667Z,3.93
2023-01-06T09:47:49.229Z,2.93
2023-01-06T09:50:31.873Z,3.40
2023-01-06T09:53:36.120Z,4.93
2023-01-06T09:56:08.128Z,3.67
2023-01-06T09:58:49.958Z,4.83
2023-01-06T10:01:30.335Z,4.30
2023-01-06T10:03:58.600Z,4.93
2023-01-06T10:06:44.783Z,3.57
2023-01-06T10:09:47.562Z,5.33
2023-01-06T10:12:45.834Z,4.83
2023-01-06T10:15:29.422Z,4.97
2023-01-06T10:18:25.238Z,4.43
2023-01-06T10:21:04.579Z,3.97
2023-01-06T10:23:55.844Z,4.73
2023-01-06T10:26:31.726Z,3.57
2023-01-06T10:29:30.741Z,4.40
2023-01-06T10:32:00.305Z,4.33
2023-01-06T10:34:29.112Z,5.33
2023-01-06T10:37:38.939Z,3.50
2023-01-06T10:40:29.538Z,6.67
2023-01-06T10:43:11.961Z,4.73
2023-01-06T10:45:44.020Z,3.67
2023-01-06T10:48:27.303Z,4.60
2023-01-06T10:50:57.059Z,3.03
2023-01-06T10:53:26.293Z,3.83
2023-01-06T10:55:55.045Z,4.07
2023-01-06T10:58:47.952Z,4.50
2023-01-06T11:01:23.664Z,6.03
2023-01-06T11:04:12.396Z,5.60
2023-01-06T11:06:54.896Z,5.07
2023-01-06T11:09:42.613Z,5.00
2023-01-06T11:12:27.345Z,6.27
2023-01-06T11:15:04.226Z,6.53
2023-01-06T11:17:32.907Z,7.63
2023-01-06T11:20:18.590Z,8.20
2023-01-06T11:22:47.114Z,5.90
2023-01-06T11:25:20.340Z,5.23
2023-01-06T11:28:20.201Z,6.40
2023-01-06T11:30:54.686Z,5.80
2023-01-06T11:33:26.501Z,6.27
2023-01-06T11:35:55.363Z,7.40
2023-01-06T11:38:23.677Z,5.67
2023-01-06T11:40:53.282Z,6.50
2023-01-06T11:43:28.341Z,8.57
2023-01-06T11:46:01.029Z,6.53
2023-01-06T11:48:37.593Z,6.00
2023-01-06T11:51:09.228Z,7.03
2023-01-06T11:53:39.142Z,7.10
2023-01-06T11:56:15.736Z,6.63
2023-01-06T11:59:11.393Z,7.47
2023-01-06T12:01:54.396Z,6.30
2023-01-06T12:04:39.457Z,6.47
2023-01-06T12:07:30.350Z,5.77
2023-01-06T12:10:05.715Z,6.53
2023-01-06T12:12:33.219Z,4.67
2023-01-06T12:15:01.972Z,4.83
2023-01-06T12:17:47.051Z,6.53
2023-01-06T12:20:30.674Z,6.00
2023-01-06T12:23:06.264Z,7.90
2023-01-06T12:25:46.143Z,7.63
2023-01-06T12:28:31.725Z,6.73
2023-01-06T12:31:16.885Z,6.27
2023-01-06T12:34:14.180Z,6.17
2023-01-06T12:37:10.840Z,7.40
2023-01-06T12:40:17.465Z,5.70
2023-01-06T12:43:04.486Z,6.87
2023-01-06T12:45:57.774Z,6.33
2023-01-06T12:48:50.058Z,5.90
2023-01-06T12:51:41.418Z,7.03
2023-01-06T12:54:22.772Z,6.00
2023-01-06T12:57:23.660Z,8.20
2023-01-06T13:00:23.487Z,9.03
2023-01-06T13:02:59.639Z,8.53
2023-01-06T13:05:50.535Z,7.30
2023-01-06T13:08:53.532Z,8.30
2023-01-06T13:11:54.215Z,9.10
2023-01-06T13:14:38.086Z,8.30
2023-01-06T13:17:42.005Z,9.00
2023-01-06T13:20:28.459Z,8.57
2023-01-06T13:23:42.755Z,9.03
2023-01-06T13:26:23.761Z,9.37
2023-01-06T13:29:35.467Z,9.27
2023-01-06T13:32:25.388Z,7.70
2023-01-06T13:35:13.579Z,8.00
2023-01-06T13:38:27.687Z,7.43
2023-01-06T13:41:00.992Z,8.60
2023-01-06T13:43:33.163Z,6.97
2023-01-06T13:46:09.855Z,10.17
2023-01-06T13:48:43.980Z,10.60
2023-01-06T13:51:14.631Z,11.30
2023-01-06T13:53:45.559Z,10.07
2023-01-06T13:56:13.008Z,11.13
2023-01-06T13:58:49.589Z,10.57
2023-01-06T14:01:20.280Z,11.73
2023-01-06T14:03:51.197Z,13.93
2023-01-06T14:06:24.495Z,10.80
2023-01-06T14:08:59.538Z,11.60
2023-01-06T14:11:27.050Z,11.37
2023-01-06T14:14:06.665Z,12.90
2023-01-06T14:16:54.605Z,12.37
2023-01-06T14:19:24.532Z,11.20
2023-01-06T14:22:11.978Z,14.60
2023-01-06T14:24:48.175Z,13.17
2023-01-06T14:27:15.580Z,12.70
2023-01-06T14:29:43.290Z,13.07
2023-01-06T14:32:14.956Z,10.10
2023-01-06T14:34:56.104Z,13.00
2023-01-06T14:37:41.777Z,14.10
2023-01-06T14:40:36.072Z,15.30
2023-01-06T14:43:27.654Z,14.20
2023-01-06T14:45:55.324Z,16.40
2023-01-06T14:48:26.661Z,15.93
2023-01-06T14:50:59.140Z,16.03
2023-01-06T14:53:49.171Z,15.93
2023-01-06T14:56:23.157Z,21.87
2023-01-06T14:58:50.663Z,23.07
2023-01-06T15:01:36.033Z,25.17
2023-01-06T15:04:05.081Z,25.03
2023-01-06T15:06:33.021Z,21.47
2023-01-06T15:09:20.687Z,21.20
2023-01-06T15:11:48.464Z,25.67
2023-01-06T15:14:34.190Z,29.20
2023-01-06T15:17:05.759Z,25.03
2023-01-06T15:19:34.883Z,25.97
2023-01-06T15:22:07.979Z,27.10
2023-01-06T15:24:42.299Z,24.47
2023-01-06T15:27:15.902Z,18.47
2023-01-06T15:29:57.942Z,16.20
2023-01-06T15:32:27.613Z,24.67
2023-01-06T15:34:58.436Z,28.73
2023-01-06T15:37:31.348Z,24.33
2023-01-06T15:39:58.927Z,24.77
2023-01-06T15:42:27.833Z,18.27
2023-01-06T15:45:01.310Z,16.30
2023-01-06T15:47:45.975Z,16.70
2023-01-06T15:50:25.755Z,14.73
2023-01-06T15:53:00.974Z,14.20
2023-01-06T15:55:36.265Z,14.87
2023-01-06T15:58:25.014Z,15.07
2023-01-06T16:01:15.907Z,19.50
2023-01-06T16:03:50.954Z,15.90
2023-01-06T16:06:34.827Z,18.33
2023-01-06T16:09:20.337Z,16.47
2023-01-06T16:12:03.435Z,34.70
2023-01-06T16:14:36.023Z,30.63
2023-01-06T16:17:05.550Z,30.07
2023-01-06T16:19:34.621Z,28.70
2023-01-06T16:22:27.353Z,22.50
2023-01-06T16:24:55.089Z,24.67
2023-01-06T16:27:25.137Z,25.03
2023-01-06T16:30:14.451Z,24.03
2023-01-06T16:32:43.497Z,27.13
2023-01-06T16:35:19.670Z,27.47
2023-01-06T16:37:47.391Z,24.20
2023-01-06T16:40:17.060Z,25.90
2023-01-06T16:42:46.598Z,26.87
2023-01-06T16:45:23.303Z,28.63
2023-01-06T16:47:51.965Z,30.70
2023-01-06T16:50:37.245Z,26.73
2023-01-06T16:53:10.766Z,27.60
2023-01-06T16:55:39.868Z,55.37
2023-01-06T16:58:35.313Z,30.77
2023-01-06T17:01:15.625Z,28.27
2023-01-06T17:03:43.931Z,36.97
2023-01-06T17:06:22.623Z,27.33
2023-01-06T17:08:52.190Z,21.80
2023-01-06T17:11:24.259Z,21.07
2023-01-06T17:14:07.036Z,18.03
2023-01-06T17:16:39.786Z,18.00
2023-01-06T17:19:32.590Z,18.33
2023-01-06T17:22:31.059Z,16.83
2023-01-06T17:25:10.072Z,16.87
2023-01-06T17:27:37.498Z,16.20
2023-01-06T17:30:15.730Z,16.47
2023-01-06T17:32:45.021Z,14.90
2023-01-06T17:35:28.519Z,14.23
2023-01-06T17:38:15.238Z,11.77
2023-01-06T17:40:42.752Z,13.30
2023-01-06T17:43:33.558Z,12.47
2023-01-06T17:46:03.551Z,10.47
2023-01-06T17:48:32.392Z,12.53
2023-01-06T17:50:59.851Z,11.23
2023-01-06T17:53:54.832Z,10.23
2023-01-06T17:56:24.140Z,12.10
2023-01-06T17:58:51.646Z,11.87
2023-01-06T18:01:28.698Z,13.97
2023-01-06T18:03:59.525Z,10.10
2023-01-06T18:06:38.135Z,9.93
2023-01-06T18:09:05.474Z,9.90
2023-01-06T18:11:42.190Z,8.13
2023-01-06T18:14:29.783Z,10.20
2023-01-06T18:16:59.893Z,8.57
2023-01-06T18:19:37.710Z,8.53
2023-01-06T18:22:33.968Z,8.27
2023-01-06T18:25:02.551Z,7.43
2023-01-06T18:27:36.998Z,7.63
2023-01-06T18:30:21.357Z,8.63
2023-01-06T18:32:52.579Z,7.07
2023-01-06T18:35:27.851Z,5.83
2023-01-06T18:38:02.547Z,6.97
2023-01-06T18:40:31.693Z,6.53
2023-01-06T18:43:00.753Z,6.07
2023-01-06T18:45:36.860Z,7.23
2023-01-06T18:48:30.845Z,5.67
2023-01-06T18:51:01.608Z,6.67
2023-01-06T18:53:38.199Z,7.20
2023-01-06T18:56:21.202Z,7.50
2023-01-06T18:58:52.612Z,4.70
2023-01-06T19:01:48.577Z,5.80
2023-01-06T19:04:30.344Z,4.70
2023-01-06T19:07:16.106Z,6.87
2023-01-06T19:09:50.801Z,4.73
2023-01-06T19:12:40.420Z,5.03
2023-01-06T19:15:23.040Z,4.80
2023-01-06T19:17:51.614Z,4.90
2023-01-06T19:20:29.319Z,4.77
2023-01-06T19:22:57.612Z,5.40
2023-01-06T19:26:17.981Z,5.20
2023-01-06T19:29:04.104Z,6.67
2023-01-06T19:31:31.548Z,4.93
2023-01-06T19:34:04.021Z,4.90
2023-01-06T19:36:51.467Z,5.40
2023-01-06T19:39:40.421Z,5.03
2023-01-06T19:42:30.366Z,5.50
2023-01-06T19:45:01.159Z,5.50
2023-01-06T19:47:35.960Z,5.17
2023-01-06T19:50:25.727Z,4.23
2023-01-06T19:53:00.336Z,4.23
2023-01-06T19:55:30.580Z,4.07
2023-01-06T19:58:24.561Z,3.83
2023-01-06T20:00:54.550Z,4.67
2023-01-06T20:03:36.044Z,4.70
2023-01-06T20:06:04.540Z,5.23
2023-01-06T20:08:32.023Z,6.03
2023-01-06T20:10:59.498Z,6.27
2023-01-06T20:13:26.991Z,5.97
2023-01-06T20:15:54.426Z,6.47
2023-01-06T20:18:21.863Z,5.37
2023-01-06T20:20:49.363Z,4.97
2023-01-06T20:23:18.522Z,4.40
2023-01-06T20:25:46.270Z,4.37
2023-01-06T20:28:13.826Z,4.57
2023-01-06T20:30:41.448Z,4.77
2023-01-06T20:33:08.846Z,5.47
2023-01-06T20:35:36.302Z,5.30
2023-01-06T20:38:03.876Z,4.30
2023-01-06T20:40:31.333Z,4.17
2023-01-06T20:42:58.733Z,4.07
2023-01-06T20:45:26.178Z,5.07
2023-01-06T20:47:53.591Z,4.17
2023-01-06T20:50:21.184Z,5.23
2023-01-06T20:52:48.578Z,4.27
2023-01-06T20:55:16.276Z,5.90
2023-01-06T20:57:43.722Z,4.40
2023-01-06T21:00:12.605Z,5.83
2023-01-06T21:02:40.281Z,3.60
2023-01-06T21:05:09.111Z,5.03
2023-01-06T21:07:36.741Z,5.33
2023-01-06T21:10:04.932Z,3.40
2023-01-06T21:12:32.478Z,4.70
2023-01-06T21:14:59.928Z,4.13
2023-01-06T21:17:27.503Z,4.80
2023-01-06T21:19:55.523Z,4.93
2023-01-06T21:22:23.238Z,4.33
2023-01-06T21:24:50.716Z,5.20
2023-01-06T21:27:18.291Z,4.37
2023-01-06T21:29:45.862Z,5.10
2023-01-06T21:32:13.336Z,4.80
2023-01-06T21:34:40.796Z,4.80
2023-01-06T21:37:08.345Z,4.03
2023-01-06T21:39:35.887Z,4.10
2023-01-06T21:42:21.952Z,4.47
2023-01-06T21:44:49.566Z,4.20
2023-01-06T21:47:16.988Z,6.63
2023-01-06T21:49:47.212Z,6.23
2023-01-06T21:52:15.846Z,9.70
2023-01-06T21:54:44.732Z,30.67
2023-01-06T21:57:13.334Z,44.63
2023-01-06T21:59:40.886Z,15.17
2023-01-06T22:02:09.724Z,12.43
2023-01-06T22:04:37.297Z,33.20
2023-01-06T22:07:09.440Z,77.23
2023-01-06T22:09:39.697Z,47.53
2023-01-06T22:12:09.721Z,24.17
2023-01-06T22:14:37.832Z,17.90
2023-01-06T22:17:05.417Z,22.03
2023-01-06T22:19:33.205Z,26.40
2023-01-06T22:22:01.712Z,11.10
2023-01-06T22:24:31.511Z,11.17
2023-01-06T22:26:59.031Z,4.83
2023-01-06T22:29:26.647Z,15.40
2023-01-06T22:31:54.118Z,9.27
2023-01-06T22:34:21.580Z,5.93
2023-01-06T22:36:49.022Z,4.27
2023-01-06T22:39:16.480Z,6.53
2023-01-06T22:41:43.998Z,8.67
2023-01-06T22:44:11.485Z,6.67
2023-01-06T22:46:39.069Z,4.37
2023-01-06T22:49:06.803Z,5.93
2023-01-06T22:51:35.094Z,4.80
2023-01-06T22:54:02.651Z,5.73
2023-01-06T22:56:30.074Z,5.83
2023-01-06T22:58:57.550Z,5.70
2023-01-06T23:01:25.133Z,4.77
2023-01-06T23:03:52.633Z,5.80
2023-01-06T23:06:20.199Z,7.17
2023-01-06T23:08:59.748Z,6.33
2023-01-06T23:11:30.001Z,4.80
2023-01-06T23:13:58.866Z,6.13
2023-01-06T23:16:27.286Z,4.37
2023-01-06T23:18:54.977Z,5.50
2023-01-06T23:21:24.895Z,7.07
2023-01-06T23:23:52.991Z,5.77
2023-01-06T23:26:24.720Z,5.67
2023-01-06T23:28:54.177Z,4.97
2023-01-06T23:31:26.332Z,5.50
2023-01-06T23:33:57.291Z,5.53
2023-01-06T23:36:27.988Z,4.87
2023-01-06T23:38:56.643Z,5.07
2023-01-06T23:41:30.694Z,4.87
2023-01-06T23:43:59.088Z,6.63
2023-01-06T23:46:34.685Z,4.43
2023-01-06T23:49:02.780Z,5.60
2023-01-06T23:51:32.336Z,4.63
2023-01-06T23:54:01.447Z,5.13
2023-01-06T23:56:31.768Z,5.43
2023-01-06T23:59:02.595Z,5.87
